Weather at Palama Airfield [CLOSED]

Public forecast

Using degrees Celsius for public forecast. Weather courtesy of forecast.io.

Closest aviation weather report (METAR) to Palama Airfield

Closest report is Larissa Air Base, 21.9 nm (40.6 km) ENE.

2024/05/21 05:50 (retrieved 1 hour ago)

LGLR 210550Z 00000KT CAVOK 21/13 Q1015 BLU

Closest aviation forecast (TAF) to Palama Airfield

Closest forecast is Aktion National Airport, 68.3 nm (126.5 km) WSW.

2024/05/21 06:16 (retrieved 41 minutes ago)

TAF LGPZ 210500Z 2106/2206 10010KT 9999 FEW025 BECMG 2108/2110 16010KT BECMG 2113/2115 22010KT BECMG 2120/2122 VRB03KT